• Join FlightAware (Why Join?)
  • Login
  • US Flag 
12:49AM EDT


 

Airport Tracker/Info


-or-


 

Live Flight TrackerFlight Track Log ✈ CTL78 ✈ 26-Apr-2013 ✈ KPTK - KMBS

Flight Track Log - Related Links

Times and Time Zones

All times are in EDT time to prevent confusion due to time zone crossing. See the CTL78 flight status page for this flight to view local times or setup timezone preferences in your user account.

Time Position Orientation Groundspeed Altitude Reporting Facility
EDT Latitude Longitude Course Direction KTS MPH feet Rate Location/Type
03:54PM 42.6622 -83.4406 23° Northeast 117 135 1,400  Level Cleveland Center
03:56PM 42.7046 -83.4164 23° Northeast  Level FlightAware Approximate
04:03PM 42.9708 -83.4445 321° Northwest  Level FlightAware Approximate
04:04PM 43.0029 -83.4798 321° Northwest  Level FlightAware Approximate
04:05PM 43.0349 -83.5152 321° Northwest  Level FlightAware Approximate
04:06PM 43.0670 -83.5506 321° Northwest  Level FlightAware Approximate
04:07PM 43.0990 -83.5860 321° Northwest  Level FlightAware Approximate
04:08PM 43.1310 -83.6215 321° Northwest  Level FlightAware Approximate
04:09PM 43.1630 -83.6570 321° Northwest  Level FlightAware Approximate
04:10PM 43.1950 -83.6925 321° Northwest  Level FlightAware Approximate
04:11PM 43.2266 -83.7287 318° Northwest  Level FlightAware Approximate
04:12PM 43.2574 -83.7663 318° Northwest  Level FlightAware Approximate
04:13PM 43.2881 -83.8038 318° Northwest  Level FlightAware Approximate
04:14PM 43.3189 -83.8415 318° Northwest  Level FlightAware Approximate
04:15PM 43.3496 -83.8791 318° Northwest  Level FlightAware Approximate
04:16PM 43.3815 -83.9148 324° Northwest  Level FlightAware Approximate
04:17PM 43.4148 -83.9481 324° Northwest  Level FlightAware Approximate
04:18PM 43.4482 -83.9814 324° Northwest  Level FlightAware Approximate
04:19PM 43.4815 -84.0148 324° Northwest  Level FlightAware Approximate
04:20PM 43.5104 -84.0541 305° West  Level FlightAware Approximate
04:21PM 43.5167 -84.0667 305° West  Level FlightAware Approximate
04:22PM 43.5329 -84.0796 305° West  Level Estimated
04:23PM 43.5329 -84.0796 305° West  Level Estimated
04:24PM 43.5329 -84.0796 305° West  Level Estimated
04:25PM 43.5329 -84.0796 305° West  Level Estimated